sensor_id;sensor_type;location;lat;lon;timestamp;P1;durP1;ratioP1;P2;durP2;ratioP2
15063;SDS011;7631;52.088;5.088;2022-07-25T00:00:07;2.00;;;1.77;;
15063;SDS011;7631;52.088;5.088;2022-07-25T00:02:33;1.77;;;1.67;;
15063;SDS011;7631;52.088;5.088;2022-07-25T00:04:59;1.73;;;1.63;;
15063;SDS011;7631;52.088;5.088;2022-07-25T00:07:24;1.70;;;1.60;;
15063;SDS011;7631;52.088;5.088;2022-07-25T00:09:49;1.80;;;1.70;;
15063;SDS011;7631;52.088;5.088;2022-07-25T00:12:14;1.75;;;1.65;;
15063;SDS011;7631;52.088;5.088;2022-07-25T00:14:39;2.05;;;1.95;;
15063;SDS011;7631;52.088;5.088;2022-07-25T00:17:05;2.03;;;1.90;;
15063;SDS011;7631;52.088;5.088;2022-07-25T00:19:30;2.17;;;1.98;;
15063;SDS011;7631;52.088;5.088;2022-07-25T00:21:55;1.95;;;1.85;;
15063;SDS011;7631;52.088;5.088;2022-07-25T00:24:21;2.08;;;1.88;;
15063;SDS011;7631;52.088;5.088;2022-07-25T00:26:46;2.25;;;2.13;;
15063;SDS011;7631;52.088;5.088;2022-07-25T00:29:11;2.40;;;2.20;;
15063;SDS011;7631;52.088;5.088;2022-07-25T00:31:37;1.90;;;1.80;;
15063;SDS011;7631;52.088;5.088;2022-07-25T00:34:02;1.85;;;1.75;;
15063;SDS011;7631;52.088;5.088;2022-07-25T00:36:27;2.08;;;1.98;;
15063;SDS011;7631;52.088;5.088;2022-07-25T00:38:52;2.03;;;1.92;;
15063;SDS011;7631;52.088;5.088;2022-07-25T00:41:18;2.10;;;2.00;;
15063;SDS011;7631;52.088;5.088;2022-07-25T00:43:44;2.15;;;1.95;;
15063;SDS011;7631;52.088;5.088;2022-07-25T00:46:13;2.20;;;2.10;;
15063;SDS011;7631;52.088;5.088;2022-07-25T00:48:38;2.38;;;2.20;;
15063;SDS011;7631;52.088;5.088;2022-07-25T00:51:04;2.33;;;2.13;;
15063;SDS011;7631;52.088;5.088;2022-07-25T00:53:29;2.30;;;2.20;;
15063;SDS011;7631;52.088;5.088;2022-07-25T00:55:54;2.30;;;2.20;;
15063;SDS011;7631;52.088;5.088;2022-07-25T00:58:19;2.42;;;2.20;;
15063;SDS011;7631;52.088;5.088;2022-07-25T01:00:45;2.63;;;2.42;;
15063;SDS011;7631;52.088;5.088;2022-07-25T01:03:11;2.17;;;2.08;;
15063;SDS011;7631;52.088;5.088;2022-07-25T01:05:36;2.30;;;2.20;;
15063;SDS011;7631;52.088;5.088;2022-07-25T01:08:01;2.08;;;1.98;;
15063;SDS011;7631;52.088;5.088;2022-07-25T01:10:28;2.45;;;2.25;;
15063;SDS011;7631;52.088;5.088;2022-07-25T01:12:54;2.63;;;2.42;;
15063;SDS011;7631;52.088;5.088;2022-07-25T01:15:20;2.58;;;2.38;;
15063;SDS011;7631;52.088;5.088;2022-07-25T01:17:46;2.20;;;2.10;;
15063;SDS011;7631;52.088;5.088;2022-07-25T01:20:12;2.30;;;2.20;;
15063;SDS011;7631;52.088;5.088;2022-07-25T01:22:37;2.20;;;2.00;;
15063;SDS011;7631;52.088;5.088;2022-07-25T01:25:02;2.50;;;2.30;;
15063;SDS011;7631;52.088;5.088;2022-07-25T01:27:28;2.17;;;2.08;;
15063;SDS011;7631;52.088;5.088;2022-07-25T01:29:53;2.58;;;2.38;;
15063;SDS011;7631;52.088;5.088;2022-07-25T01:32:18;2.38;;;2.17;;
15063;SDS011;7631;52.088;5.088;2022-07-25T01:34:43;2.72;;;2.53;;
15063;SDS011;7631;52.088;5.088;2022-07-25T01:37:09;2.58;;;2.38;;
15063;SDS011;7631;52.088;5.088;2022-07-25T01:39:34;2.58;;;2.38;;
15063;SDS011;7631;52.088;5.088;2022-07-25T01:41:59;2.50;;;2.30;;
15063;SDS011;7631;52.088;5.088;2022-07-25T01:44:24;2.63;;;2.42;;
15063;SDS011;7631;52.088;5.088;2022-07-25T01:46:50;2.10;;;2.00;;
15063;SDS011;7631;52.088;5.088;2022-07-25T01:49:16;2.40;;;2.20;;
15063;SDS011;7631;52.088;5.088;2022-07-25T01:51:41;2.35;;;2.20;;
15063;SDS011;7631;52.088;5.088;2022-07-25T01:54:06;2.83;;;2.63;;
15063;SDS011;7631;52.088;5.088;2022-07-25T01:56:32;2.67;;;2.47;;
15063;SDS011;7631;52.088;5.088;2022-07-25T01:58:57;2.35;;;2.15;;
15063;SDS011;7631;52.088;5.088;2022-07-25T02:01:22;2.72;;;2.53;;
15063;SDS011;7631;52.088;5.088;2022-07-25T02:03:47;2.00;;;1.90;;
15063;SDS011;7631;52.088;5.088;2022-07-25T02:06:12;2.60;;;2.40;;
15063;SDS011;7631;52.088;5.088;2022-07-25T02:08:38;2.40;;;2.30;;
15063;SDS011;7631;52.088;5.088;2022-07-25T02:11:03;2.33;;;2.13;;
15063;SDS011;7631;52.088;5.088;2022-07-25T02:13:28;2.42;;;2.22;;
15063;SDS011;7631;52.088;5.088;2022-07-25T02:15:53;2.72;;;2.53;;
15063;SDS011;7631;52.088;5.088;2022-07-25T02:18:18;2.70;;;2.50;;
15063;SDS011;7631;52.088;5.088;2022-07-25T02:20:44;2.60;;;2.40;;
15063;SDS011;7631;52.088;5.088;2022-07-25T02:23:09;2.80;;;2.60;;
15063;SDS011;7631;52.088;5.088;2022-07-25T02:25:34;2.50;;;2.30;;
15063;SDS011;7631;52.088;5.088;2022-07-25T02:28:00;2.75;;;2.45;;
15063;SDS011;7631;52.088;5.088;2022-07-25T02:30:25;2.10;;;2.00;;
15063;SDS011;7631;52.088;5.088;2022-07-25T02:32:51;2.60;;;2.40;;
15063;SDS011;7631;52.088;5.088;2022-07-25T02:35:16;2.70;;;2.50;;
15063;SDS011;7631;52.088;5.088;2022-07-25T02:37:41;2.50;;;2.33;;
15063;SDS011;7631;52.088;5.088;2022-07-25T02:40:07;2.47;;;2.28;;
15063;SDS011;7631;52.088;5.088;2022-07-25T02:42:32;2.65;;;2.45;;
15063;SDS011;7631;52.088;5.088;2022-07-25T02:44:57;2.67;;;2.47;;
15063;SDS011;7631;52.088;5.088;2022-07-25T02:47:23;2.65;;;2.50;;
15063;SDS011;7631;52.088;5.088;2022-07-25T02:49:48;2.50;;;2.38;;
15063;SDS011;7631;52.088;5.088;2022-07-25T02:52:13;2.70;;;2.50;;
15063;SDS011;7631;52.088;5.088;2022-07-25T02:54:38;2.67;;;2.47;;
15063;SDS011;7631;52.088;5.088;2022-07-25T02:57:03;2.75;;;2.55;;
15063;SDS011;7631;52.088;5.088;2022-07-25T02:59:29;2.40;;;2.20;;
15063;SDS011;7631;52.088;5.088;2022-07-25T03:01:54;2.53;;;2.40;;
15063;SDS011;7631;52.088;5.088;2022-07-25T03:04:19;2.60;;;2.40;;
15063;SDS011;7631;52.088;5.088;2022-07-25T03:06:44;2.80;;;2.60;;
15063;SDS011;7631;52.088;5.088;2022-07-25T03:09:09;2.83;;;2.63;;
15063;SDS011;7631;52.088;5.088;2022-07-25T03:11:35;2.72;;;2.53;;
15063;SDS011;7631;52.088;5.088;2022-07-25T03:14:00;2.78;;;2.58;;
15063;SDS011;7631;52.088;5.088;2022-07-25T03:16:25;2.90;;;2.70;;
15063;SDS011;7631;52.088;5.088;2022-07-25T03:18:50;2.50;;;2.33;;
15063;SDS011;7631;52.088;5.088;2022-07-25T03:21:16;2.55;;;2.45;;
15063;SDS011;7631;52.088;5.088;2022-07-25T03:23:41;2.60;;;2.40;;
15063;SDS011;7631;52.088;5.088;2022-07-25T03:26:06;2.83;;;2.63;;
15063;SDS011;7631;52.088;5.088;2022-07-25T03:28:31;2.80;;;2.60;;
15063;SDS011;7631;52.088;5.088;2022-07-25T03:30:56;2.90;;;2.70;;
15063;SDS011;7631;52.088;5.088;2022-07-25T03:33:22;3.10;;;2.85;;
15063;SDS011;7631;52.088;5.088;2022-07-25T03:35:47;2.97;;;2.78;;
15063;SDS011;7631;52.088;5.088;2022-07-25T03:38:12;2.75;;;2.55;;
15063;SDS011;7631;52.088;5.088;2022-07-25T03:40:38;3.20;;;3.00;;
15063;SDS011;7631;52.088;5.088;2022-07-25T03:43:03;3.03;;;2.83;;
15063;SDS011;7631;52.088;5.088;2022-07-25T03:45:28;2.60;;;2.40;;
15063;SDS011;7631;52.088;5.088;2022-07-25T03:47:54;2.70;;;2.50;;
15063;SDS011;7631;52.088;5.088;2022-07-25T03:50:19;3.10;;;2.90;;
15063;SDS011;7631;52.088;5.088;2022-07-25T03:52:44;3.10;;;2.90;;
15063;SDS011;7631;52.088;5.088;2022-07-25T03:55:09;2.70;;;2.50;;
15063;SDS011;7631;52.088;5.088;2022-07-25T03:57:35;2.95;;;2.75;;
15063;SDS011;7631;52.088;5.088;2022-07-25T04:00:00;3.45;;;3.15;;
15063;SDS011;7631;52.088;5.088;2022-07-25T04:02:25;3.45;;;3.15;;
15063;SDS011;7631;52.088;5.088;2022-07-25T04:04:51;2.78;;;2.58;;
15063;SDS011;7631;52.088;5.088;2022-07-25T04:07:16;3.10;;;2.90;;
15063;SDS011;7631;52.088;5.088;2022-07-25T04:09:41;2.90;;;2.70;;
15063;SDS011;7631;52.088;5.088;2022-07-25T04:12:06;2.88;;;2.67;;
15063;SDS011;7631;52.088;5.088;2022-07-25T04:14:32;3.00;;;2.80;;
15063;SDS011;7631;52.088;5.088;2022-07-25T04:16:57;3.13;;;2.92;;
15063;SDS011;7631;52.088;5.088;2022-07-25T04:19:22;3.20;;;2.90;;
15063;SDS011;7631;52.088;5.088;2022-07-25T04:21:47;2.78;;;2.58;;
15063;SDS011;7631;52.088;5.088;2022-07-25T04:24:12;3.35;;;3.05;;
15063;SDS011;7631;52.088;5.088;2022-07-25T04:26:38;3.13;;;2.92;;
15063;SDS011;7631;52.088;5.088;2022-07-25T04:29:03;2.88;;;2.67;;
15063;SDS011;7631;52.088;5.088;2022-07-25T04:31:28;3.03;;;2.83;;
15063;SDS011;7631;52.088;5.088;2022-07-25T04:33:53;3.33;;;3.03;;
15063;SDS011;7631;52.088;5.088;2022-07-25T04:36:20;3.00;;;2.80;;
15063;SDS011;7631;52.088;5.088;2022-07-25T04:38:45;3.40;;;3.13;;
15063;SDS011;7631;52.088;5.088;2022-07-25T04:41:10;3.17;;;2.97;;
15063;SDS011;7631;52.088;5.088;2022-07-25T04:43:35;3.38;;;3.17;;
15063;SDS011;7631;52.088;5.088;2022-07-25T04:46:01;3.30;;;3.10;;
15063;SDS011;7631;52.088;5.088;2022-07-25T04:48:26;3.60;;;3.30;;
15063;SDS011;7631;52.088;5.088;2022-07-25T04:50:51;3.40;;;3.20;;
15063;SDS011;7631;52.088;5.088;2022-07-25T04:53:17;3.15;;;2.95;;
15063;SDS011;7631;52.088;5.088;2022-07-25T04:55:42;3.42;;;3.13;;
15063;SDS011;7631;52.088;5.088;2022-07-25T04:58:07;3.60;;;3.30;;
15063;SDS011;7631;52.088;5.088;2022-07-25T05:00:32;3.65;;;3.35;;
15063;SDS011;7631;52.088;5.088;2022-07-25T05:02:58;3.58;;;3.28;;
15063;SDS011;7631;52.088;5.088;2022-07-25T05:05:23;3.17;;;2.97;;
15063;SDS011;7631;52.088;5.088;2022-07-25T05:07:49;2.97;;;2.78;;
15063;SDS011;7631;52.088;5.088;2022-07-25T05:10:14;3.72;;;3.42;;
15063;SDS011;7631;52.088;5.088;2022-07-25T05:12:39;3.67;;;3.38;;
15063;SDS011;7631;52.088;5.088;2022-07-25T05:15:05;3.17;;;2.97;;
15063;SDS011;7631;52.088;5.088;2022-07-25T05:17:30;3.28;;;3.05;;
15063;SDS011;7631;52.088;5.088;2022-07-25T05:19:56;3.80;;;3.50;;
15063;SDS011;7631;52.088;5.088;2022-07-25T05:22:21;3.42;;;3.22;;
15063;SDS011;7631;52.088;5.088;2022-07-25T05:24:46;3.50;;;3.22;;
15063;SDS011;7631;52.088;5.088;2022-07-25T05:27:12;3.88;;;3.58;;
15063;SDS011;7631;52.088;5.088;2022-07-25T05:29:37;4.35;;;3.95;;
15063;SDS011;7631;52.088;5.088;2022-07-25T05:32:03;3.85;;;3.55;;
15063;SDS011;7631;52.088;5.088;2022-07-25T05:34:28;4.05;;;3.75;;
15063;SDS011;7631;52.088;5.088;2022-07-25T05:36:54;5.82;;;5.32;;
15063;SDS011;7631;52.088;5.088;2022-07-25T05:39:19;5.80;;;5.13;;
15063;SDS011;7631;52.088;5.088;2022-07-25T05:41:44;4.28;;;3.88;;
15063;SDS011;7631;52.088;5.088;2022-07-25T05:44:09;3.40;;;3.20;;
15063;SDS011;7631;52.088;5.088;2022-07-25T05:46:34;4.43;;;4.10;;
15063;SDS011;7631;52.088;5.088;2022-07-25T05:49:00;4.78;;;4.38;;
15063;SDS011;7631;52.088;5.088;2022-07-25T05:51:25;4.72;;;4.38;;
15063;SDS011;7631;52.088;5.088;2022-07-25T05:53:51;4.82;;;4.43;;
15063;SDS011;7631;52.088;5.088;2022-07-25T05:56:16;4.53;;;4.13;;
15063;SDS011;7631;52.088;5.088;2022-07-25T05:58:41;4.75;;;4.35;;
15063;SDS011;7631;52.088;5.088;2022-07-25T06:01:07;5.10;;;4.70;;
15063;SDS011;7631;52.088;5.088;2022-07-25T06:03:32;4.75;;;4.35;;
15063;SDS011;7631;52.088;5.088;2022-07-25T06:05:58;4.47;;;4.07;;
15063;SDS011;7631;52.088;5.088;2022-07-25T06:08:23;4.22;;;3.92;;
15063;SDS011;7631;52.088;5.088;2022-07-25T06:10:49;4.35;;;4.05;;
15063;SDS011;7631;52.088;5.088;2022-07-25T06:13:14;4.40;;;4.05;;
15063;SDS011;7631;52.088;5.088;2022-07-25T06:15:39;4.10;;;3.80;;
15063;SDS011;7631;52.088;5.088;2022-07-25T06:18:04;4.38;;;3.97;;
15063;SDS011;7631;52.088;5.088;2022-07-25T06:20:29;3.40;;;3.20;;
15063;SDS011;7631;52.088;5.088;2022-07-25T06:22:55;4.28;;;3.97;;
15063;SDS011;7631;52.088;5.088;2022-07-25T06:25:20;5.28;;;4.45;;
15063;SDS011;7631;52.088;5.088;2022-07-25T06:27:45;4.53;;;3.55;;
15063;SDS011;7631;52.088;5.088;2022-07-25T06:30:11;4.13;;;3.72;;
15063;SDS011;7631;52.088;5.088;2022-07-25T06:32:36;4.28;;;3.63;;
15063;SDS011;7631;52.088;5.088;2022-07-25T06:35:01;3.72;;;3.42;;
15063;SDS011;7631;52.088;5.088;2022-07-25T06:37:27;3.42;;;3.13;;
15063;SDS011;7631;52.088;5.088;2022-07-25T06:39:52;3.90;;;3.50;;
15063;SDS011;7631;52.088;5.088;2022-07-25T06:42:17;3.53;;;3.22;;
15063;SDS011;7631;52.088;5.088;2022-07-25T06:44:42;3.50;;;3.20;;
15063;SDS011;7631;52.088;5.088;2022-07-25T06:47:07;3.78;;;3.47;;
15063;SDS011;7631;52.088;5.088;2022-07-25T06:49:36;3.10;;;2.88;;
15063;SDS011;7631;52.088;5.088;2022-07-25T06:52:02;3.13;;;2.92;;
15063;SDS011;7631;52.088;5.088;2022-07-25T06:54:27;3.45;;;3.15;;
15063;SDS011;7631;52.088;5.088;2022-07-25T06:56:52;3.13;;;2.92;;
15063;SDS011;7631;52.088;5.088;2022-07-25T06:59:17;3.00;;;2.80;;
15063;SDS011;7631;52.088;5.088;2022-07-25T07:01:42;3.28;;;2.97;;
15063;SDS011;7631;52.088;5.088;2022-07-25T07:04:08;2.90;;;2.70;;
15063;SDS011;7631;52.088;5.088;2022-07-25T07:06:33;3.55;;;3.25;;
15063;SDS011;7631;52.088;5.088;2022-07-25T07:09:00;3.25;;;2.90;;
15063;SDS011;7631;52.088;5.088;2022-07-25T07:11:25;3.13;;;2.72;;
15063;SDS011;7631;52.088;5.088;2022-07-25T07:13:51;2.83;;;2.53;;
15063;SDS011;7631;52.088;5.088;2022-07-25T07:16:16;2.95;;;2.65;;
15063;SDS011;7631;52.088;5.088;2022-07-25T07:18:41;2.97;;;2.78;;
15063;SDS011;7631;52.088;5.088;2022-07-25T07:21:06;2.92;;;2.50;;
15063;SDS011;7631;52.088;5.088;2022-07-25T07:23:31;2.88;;;2.67;;
15063;SDS011;7631;52.088;5.088;2022-07-25T07:25:57;2.88;;;2.67;;
15063;SDS011;7631;52.088;5.088;2022-07-25T07:28:22;3.00;;;2.80;;
15063;SDS011;7631;52.088;5.088;2022-07-25T07:30:47;2.20;;;2.10;;
15063;SDS011;7631;52.088;5.088;2022-07-25T07:33:13;2.60;;;2.40;;
15063;SDS011;7631;52.088;5.088;2022-07-25T07:35:38;3.20;;;2.50;;
15063;SDS011;7631;52.088;5.088;2022-07-25T07:38:04;2.40;;;2.20;;
15063;SDS011;7631;52.088;5.088;2022-07-25T07:40:29;2.80;;;2.60;;
15063;SDS011;7631;52.088;5.088;2022-07-25T07:42:54;2.70;;;2.50;;
15063;SDS011;7631;52.088;5.088;2022-07-25T07:45:24;2.63;;;2.42;;
15063;SDS011;7631;52.088;5.088;2022-07-25T07:47:50;3.22;;;2.42;;
15063;SDS011;7631;52.088;5.088;2022-07-25T07:50:17;2.50;;;2.30;;
15063;SDS011;7631;52.088;5.088;2022-07-25T07:52:43;2.30;;;2.10;;
15063;SDS011;7631;52.088;5.088;2022-07-25T07:55:09;2.40;;;2.20;;
15063;SDS011;7631;52.088;5.088;2022-07-25T07:57:53;2.70;;;2.15;;
15063;SDS011;7631;52.088;5.088;2022-07-25T08:00:18;2.50;;;1.90;;
15063;SDS011;7631;52.088;5.088;2022-07-25T08:02:45;2.40;;;2.20;;
15063;SDS011;7631;52.088;5.088;2022-07-25T08:05:11;2.42;;;2.15;;
15063;SDS011;7631;52.088;5.088;2022-07-25T08:07:37;2.83;;;2.30;;
15063;SDS011;7631;52.088;5.088;2022-07-25T08:10:02;2.05;;;1.75;;
15063;SDS011;7631;52.088;5.088;2022-07-25T08:12:28;2.88;;;2.13;;
15063;SDS011;7631;52.088;5.088;2022-07-25T08:14:53;2.20;;;2.00;;
15063;SDS011;7631;52.088;5.088;2022-07-25T08:17:18;2.33;;;2.10;;
15063;SDS011;7631;52.088;5.088;2022-07-25T08:19:43;2.22;;;1.83;;
15063;SDS011;7631;52.088;5.088;2022-07-25T08:22:09;1.67;;;1.50;;
15063;SDS011;7631;52.088;5.088;2022-07-25T08:24:34;1.70;;;1.60;;
15063;SDS011;7631;52.088;5.088;2022-07-25T08:26:59;1.95;;;1.85;;
15063;SDS011;7631;52.088;5.088;2022-07-25T08:29:24;2.33;;;1.63;;
15063;SDS011;7631;52.088;5.088;2022-07-25T08:31:49;2.03;;;1.70;;
15063;SDS011;7631;52.088;5.088;2022-07-25T08:34:15;2.05;;;1.48;;
15063;SDS011;7631;52.088;5.088;2022-07-25T08:36:40;2.63;;;1.95;;
15063;SDS011;7631;52.088;5.088;2022-07-25T08:39:05;2.03;;;1.70;;
15063;SDS011;7631;52.088;5.088;2022-07-25T08:41:31;1.90;;;1.55;;
15063;SDS011;7631;52.088;5.088;2022-07-25T08:43:57;3.05;;;1.77;;
15063;SDS011;7631;52.088;5.088;2022-07-25T08:46:22;2.65;;;1.90;;
15063;SDS011;7631;52.088;5.088;2022-07-25T08:48:47;2.03;;;1.55;;
15063;SDS011;7631;52.088;5.088;2022-07-25T08:51:13;1.98;;;1.60;;
15063;SDS011;7631;52.088;5.088;2022-07-25T08:53:38;1.75;;;1.48;;
15063;SDS011;7631;52.088;5.088;2022-07-25T08:56:04;3.92;;;1.60;;
15063;SDS011;7631;52.088;5.088;2022-07-25T08:58:30;3.90;;;2.15;;
15063;SDS011;7631;52.088;5.088;2022-07-25T09:00:56;2.22;;;1.73;;
15063;SDS011;7631;52.088;5.088;2022-07-25T09:03:21;1.42;;;1.20;;
15063;SDS011;7631;52.088;5.088;2022-07-25T09:05:47;2.25;;;1.65;;
15063;SDS011;7631;52.088;5.088;2022-07-25T09:08:12;2.95;;;1.80;;
15063;SDS011;7631;52.088;5.088;2022-07-25T09:10:38;2.97;;;1.67;;
15063;SDS011;7631;52.088;5.088;2022-07-25T09:13:07;1.55;;;1.30;;
15063;SDS011;7631;52.088;5.088;2022-07-25T09:15:38;1.95;;;1.50;;
15063;SDS011;7631;52.088;5.088;2022-07-25T09:18:12;2.20;;;1.27;;
15063;SDS011;7631;52.088;5.088;2022-07-25T09:23:03;3.97;;;1.85;;
15063;SDS011;7631;52.088;5.088;2022-07-25T09:25:29;2.70;;;1.40;;
15063;SDS011;7631;52.088;5.088;2022-07-25T09:27:55;2.15;;;1.67;;
15063;SDS011;7631;52.088;5.088;2022-07-25T09:30:20;4.10;;;1.55;;
15063;SDS011;7631;52.088;5.088;2022-07-25T09:32:46;2.38;;;1.52;;
15063;SDS011;7631;52.088;5.088;2022-07-25T09:35:11;2.10;;;1.40;;
15063;SDS011;7631;52.088;5.088;2022-07-25T09:37:37;2.80;;;1.85;;
15063;SDS011;7631;52.088;5.088;2022-07-25T09:40:10;2.25;;;1.67;;
15063;SDS011;7631;52.088;5.088;2022-07-25T09:42:35;3.47;;;1.80;;
15063;SDS011;7631;52.088;5.088;2022-07-25T09:47:30;3.70;;;1.67;;
15063;SDS011;7631;52.088;5.088;2022-07-25T09:49:56;2.30;;;1.40;;
15063;SDS011;7631;52.088;5.088;2022-07-25T09:52:21;2.97;;;1.75;;
15063;SDS011;7631;52.088;5.088;2022-07-25T09:54:46;3.03;;;1.40;;
15063;SDS011;7631;52.088;5.088;2022-07-25T09:57:12;2.90;;;1.40;;
15063;SDS011;7631;52.088;5.088;2022-07-25T09:59:37;2.00;;;1.52;;
15063;SDS011;7631;52.088;5.088;2022-07-25T10:04:31;2.05;;;1.50;;
15063;SDS011;7631;52.088;5.088;2022-07-25T10:07:02;2.05;;;1.40;;
15063;SDS011;7631;52.088;5.088;2022-07-25T10:09:31;1.55;;;1.20;;
15063;SDS011;7631;52.088;5.088;2022-07-25T10:12:06;1.67;;;1.30;;
15063;SDS011;7631;52.088;5.088;2022-07-25T10:14:32;2.05;;;1.35;;
15063;SDS011;7631;52.088;5.088;2022-07-25T10:16:58;1.48;;;1.20;;
15063;SDS011;7631;52.088;5.088;2022-07-25T10:22:08;1.90;;;1.35;;
15063;SDS011;7631;52.088;5.088;2022-07-25T10:24:34;1.20;;;1.10;;
15063;SDS011;7631;52.088;5.088;2022-07-25T10:27:06;2.83;;;1.42;;
15063;SDS011;7631;52.088;5.088;2022-07-25T10:29:32;2.55;;;1.70;;
15063;SDS011;7631;52.088;5.088;2022-07-25T10:32:03;2.67;;;1.33;;
15063;SDS011;7631;52.088;5.088;2022-07-25T10:34:30;2.17;;;1.30;;
15063;SDS011;7631;52.088;5.088;2022-07-25T10:36:55;3.15;;;1.63;;
15063;SDS011;7631;52.088;5.088;2022-07-25T10:39:21;2.03;;;1.33;;
15063;SDS011;7631;52.088;5.088;2022-07-25T10:41:54;2.15;;;1.70;;
15063;SDS011;7631;52.088;5.088;2022-07-25T10:44:19;1.77;;;1.50;;
15063;SDS011;7631;52.088;5.088;2022-07-25T10:46:45;2.22;;;1.38;;
15063;SDS011;7631;52.088;5.088;2022-07-25T10:49:21;2.05;;;1.55;;
15063;SDS011;7631;52.088;5.088;2022-07-25T10:51:57;2.05;;;1.67;;
15063;SDS011;7631;52.088;5.088;2022-07-25T10:54:23;3.50;;;1.70;;
15063;SDS011;7631;52.088;5.088;2022-07-25T10:56:57;1.73;;;1.40;;
15063;SDS011;7631;52.088;5.088;2022-07-25T10:59:27;3.25;;;1.90;;
15063;SDS011;7631;52.088;5.088;2022-07-25T11:01:53;3.42;;;1.80;;
15063;SDS011;7631;52.088;5.088;2022-07-25T11:04:18;3.25;;;1.60;;
15063;SDS011;7631;52.088;5.088;2022-07-25T11:06:43;3.55;;;1.60;;
15063;SDS011;7631;52.088;5.088;2022-07-25T11:09:13;3.10;;;1.83;;
15063;SDS011;7631;52.088;5.088;2022-07-25T11:11:39;2.03;;;1.50;;
15063;SDS011;7631;52.088;5.088;2022-07-25T11:14:12;3.03;;;1.50;;
15063;SDS011;7631;52.088;5.088;2022-07-25T11:16:38;2.88;;;1.75;;
15063;SDS011;7631;52.088;5.088;2022-07-25T11:19:03;3.88;;;2.17;;
15063;SDS011;7631;52.088;5.088;2022-07-25T11:21:28;3.47;;;1.70;;
15063;SDS011;7631;52.088;5.088;2022-07-25T11:23:54;3.28;;;1.70;;
15063;SDS011;7631;52.088;5.088;2022-07-25T11:26:19;2.60;;;1.90;;
15063;SDS011;7631;52.088;5.088;2022-07-25T11:28:45;4.00;;;1.77;;
15063;SDS011;7631;52.088;5.088;2022-07-25T11:31:11;4.10;;;1.90;;
15063;SDS011;7631;52.088;5.088;2022-07-25T11:33:38;4.20;;;2.22;;
15063;SDS011;7631;52.088;5.088;2022-07-25T11:36:04;3.90;;;2.05;;
15063;SDS011;7631;52.088;5.088;2022-07-25T11:38:29;4.25;;;2.30;;
15063;SDS011;7631;52.088;5.088;2022-07-25T11:40:55;3.95;;;1.95;;
15063;SDS011;7631;52.088;5.088;2022-07-25T11:43:20;3.20;;;2.33;;
15063;SDS011;7631;52.088;5.088;2022-07-25T11:45:54;4.95;;;1.83;;
15063;SDS011;7631;52.088;5.088;2022-07-25T11:48:19;3.03;;;2.00;;
15063;SDS011;7631;52.088;5.088;2022-07-25T11:50:46;3.58;;;2.05;;
15063;SDS011;7631;52.088;5.088;2022-07-25T11:53:12;4.00;;;2.20;;
15063;SDS011;7631;52.088;5.088;2022-07-25T11:55:38;2.55;;;1.80;;
15063;SDS011;7631;52.088;5.088;2022-07-25T11:58:04;2.97;;;1.90;;
15063;SDS011;7631;52.088;5.088;2022-07-25T12:00:32;3.25;;;2.10;;
15063;SDS011;7631;52.088;5.088;2022-07-25T12:03:08;3.70;;;1.70;;
15063;SDS011;7631;52.088;5.088;2022-07-25T12:05:33;4.05;;;2.25;;
15063;SDS011;7631;52.088;5.088;2022-07-25T12:08:06;4.28;;;2.03;;
15063;SDS011;7631;52.088;5.088;2022-07-25T12:10:32;4.57;;;2.13;;
15063;SDS011;7631;52.088;5.088;2022-07-25T12:12:58;5.30;;;2.55;;
15063;SDS011;7631;52.088;5.088;2022-07-25T12:15:27;3.92;;;2.25;;
15063;SDS011;7631;52.088;5.088;2022-07-25T12:17:53;3.58;;;2.35;;
15063;SDS011;7631;52.088;5.088;2022-07-25T12:20:19;4.20;;;2.00;;
15063;SDS011;7631;52.088;5.088;2022-07-25T12:22:45;3.58;;;2.28;;
15063;SDS011;7631;52.088;5.088;2022-07-25T12:25:11;3.60;;;1.83;;
15063;SDS011;7631;52.088;5.088;2022-07-25T12:27:36;2.47;;;2.05;;
15063;SDS011;7631;52.088;5.088;2022-07-25T12:30:02;3.30;;;2.03;;
15063;SDS011;7631;52.088;5.088;2022-07-25T12:32:28;3.92;;;2.00;;
15063;SDS011;7631;52.088;5.088;2022-07-25T12:34:53;4.43;;;2.33;;
15063;SDS011;7631;52.088;5.088;2022-07-25T12:37:18;4.30;;;2.35;;
15063;SDS011;7631;52.088;5.088;2022-07-25T12:39:45;3.50;;;1.73;;
15063;SDS011;7631;52.088;5.088;2022-07-25T12:42:10;4.47;;;2.05;;
15063;SDS011;7631;52.088;5.088;2022-07-25T12:44:36;7.50;;;2.28;;
15063;SDS011;7631;52.088;5.088;2022-07-25T12:47:01;4.32;;;2.10;;
15063;SDS011;7631;52.088;5.088;2022-07-25T12:49:27;5.68;;;1.77;;
15063;SDS011;7631;52.088;5.088;2022-07-25T12:51:52;3.13;;;1.73;;
15063;SDS011;7631;52.088;5.088;2022-07-25T12:54:18;4.80;;;2.05;;
15063;SDS011;7631;52.088;5.088;2022-07-25T12:56:43;4.00;;;1.90;;
15063;SDS011;7631;52.088;5.088;2022-07-25T12:59:08;2.65;;;1.80;;
15063;SDS011;7631;52.088;5.088;2022-07-25T13:01:34;3.72;;;2.00;;
15063;SDS011;7631;52.088;5.088;2022-07-25T13:03:59;4.03;;;2.05;;
15063;SDS011;7631;52.088;5.088;2022-07-25T13:06:24;3.38;;;2.10;;
15063;SDS011;7631;52.088;5.088;2022-07-25T13:08:49;5.60;;;2.05;;
15063;SDS011;7631;52.088;5.088;2022-07-25T13:11:14;2.83;;;2.00;;
15063;SDS011;7631;52.088;5.088;2022-07-25T13:13:40;4.65;;;1.85;;
15063;SDS011;7631;52.088;5.088;2022-07-25T13:16:05;4.07;;;2.28;;
15063;SDS011;7631;52.088;5.088;2022-07-25T13:18:31;3.72;;;2.10;;
15063;SDS011;7631;52.088;5.088;2022-07-25T13:20:56;5.55;;;2.30;;
15063;SDS011;7631;52.088;5.088;2022-07-25T13:23:21;3.20;;;1.83;;
15063;SDS011;7631;52.088;5.088;2022-07-25T13:25:46;2.97;;;1.80;;
15063;SDS011;7631;52.088;5.088;2022-07-25T13:28:12;3.83;;;1.70;;
15063;SDS011;7631;52.088;5.088;2022-07-25T13:30:37;3.75;;;1.95;;
15063;SDS011;7631;52.088;5.088;2022-07-25T13:33:02;2.95;;;1.70;;
15063;SDS011;7631;52.088;5.088;2022-07-25T13:35:27;4.22;;;1.90;;
15063;SDS011;7631;52.088;5.088;2022-07-25T13:37:53;4.20;;;1.95;;
15063;SDS011;7631;52.088;5.088;2022-07-25T13:40:18;8.07;;;2.20;;
15063;SDS011;7631;52.088;5.088;2022-07-25T13:42:43;5.28;;;1.92;;
15063;SDS011;7631;52.088;5.088;2022-07-25T13:45:08;5.00;;;1.83;;
15063;SDS011;7631;52.088;5.088;2022-07-25T13:47:34;4.57;;;1.63;;
15063;SDS011;7631;52.088;5.088;2022-07-25T13:50:00;2.65;;;1.60;;
15063;SDS011;7631;52.088;5.088;2022-07-25T13:52:25;5.10;;;2.10;;
15063;SDS011;7631;52.088;5.088;2022-07-25T13:54:50;4.15;;;2.00;;
15063;SDS011;7631;52.088;5.088;2022-07-25T13:57:16;3.40;;;1.60;;
15063;SDS011;7631;52.088;5.088;2022-07-25T13:59:41;3.63;;;1.50;;
15063;SDS011;7631;52.088;5.088;2022-07-25T14:02:06;5.05;;;2.20;;
15063;SDS011;7631;52.088;5.088;2022-07-25T14:04:31;2.80;;;1.58;;
15063;SDS011;7631;52.088;5.088;2022-07-25T14:06:57;4.13;;;1.65;;
15063;SDS011;7631;52.088;5.088;2022-07-25T14:09:22;3.83;;;1.63;;
15063;SDS011;7631;52.088;5.088;2022-07-25T14:11:48;2.73;;;1.50;;
15063;SDS011;7631;52.088;5.088;2022-07-25T14:14:13;3.25;;;1.58;;
15063;SDS011;7631;52.088;5.088;2022-07-25T14:16:38;3.95;;;1.40;;
15063;SDS011;7631;52.088;5.088;2022-07-25T14:19:03;3.63;;;1.58;;
15063;SDS011;7631;52.088;5.088;2022-07-25T14:21:29;3.17;;;1.35;;
15063;SDS011;7631;52.088;5.088;2022-07-25T14:23:54;4.18;;;1.58;;
15063;SDS011;7631;52.088;5.088;2022-07-25T14:26:19;2.75;;;1.55;;
15063;SDS011;7631;52.088;5.088;2022-07-25T14:28:45;3.05;;;1.30;;
15063;SDS011;7631;52.088;5.088;2022-07-25T14:31:11;2.70;;;1.40;;
15063;SDS011;7631;52.088;5.088;2022-07-25T14:33:36;1.77;;;1.30;;
15063;SDS011;7631;52.088;5.088;2022-07-25T14:36:04;3.88;;;1.35;;
15063;SDS011;7631;52.088;5.088;2022-07-25T14:38:29;4.05;;;1.50;;
15063;SDS011;7631;52.088;5.088;2022-07-25T14:40:54;3.55;;;1.30;;
15063;SDS011;7631;52.088;5.088;2022-07-25T14:43:20;2.42;;;1.20;;
15063;SDS011;7631;52.088;5.088;2022-07-25T14:45:45;3.30;;;1.52;;
15063;SDS011;7631;52.088;5.088;2022-07-25T14:48:10;2.30;;;1.20;;
15063;SDS011;7631;52.088;5.088;2022-07-25T14:50:35;1.73;;;1.17;;
15063;SDS011;7631;52.088;5.088;2022-07-25T14:53:00;1.83;;;1.23;;
15063;SDS011;7631;52.088;5.088;2022-07-25T14:55:25;2.15;;;1.27;;
15063;SDS011;7631;52.088;5.088;2022-07-25T14:57:51;2.28;;;1.23;;
15063;SDS011;7631;52.088;5.088;2022-07-25T15:00:16;1.98;;;1.00;;